sensor_id;sensor_type;location;lat;lon;timestamp;P1;durP1;ratioP1;P2;durP2;ratioP2
60018;SDS011;45870;42.528;26.740;2023-07-09T00:02:19;11.55;;;5.40;;
60018;SDS011;45870;42.528;26.740;2023-07-09T00:04:46;17.30;;;5.50;;
60018;SDS011;45870;42.528;26.740;2023-07-09T00:09:51;15.48;;;5.95;;
60018;SDS011;45870;42.528;26.740;2023-07-09T00:12:18;11.23;;;5.63;;
60018;SDS011;45870;42.528;26.740;2023-07-09T00:14:44;16.02;;;5.70;;
60018;SDS011;45870;42.528;26.740;2023-07-09T00:17:11;16.50;;;6.15;;
60018;SDS011;45870;42.528;26.740;2023-07-09T00:19:51;15.25;;;6.15;;
60018;SDS011;45870;42.528;26.740;2023-07-09T00:22:17;14.38;;;5.72;;
60018;SDS011;45870;42.528;26.740;2023-07-09T00:24:47;9.18;;;6.07;;
60018;SDS011;45870;42.528;26.740;2023-07-09T00:27:16;11.70;;;6.20;;
60018;SDS011;45870;42.528;26.740;2023-07-09T00:29:44;13.75;;;6.20;;
60018;SDS011;45870;42.528;26.740;2023-07-09T00:32:13;15.15;;;6.30;;
60018;SDS011;45870;42.528;26.740;2023-07-09T00:34:45;9.45;;;5.47;;
60018;SDS011;45870;42.528;26.740;2023-07-09T00:37:19;16.98;;;7.03;;
60018;SDS011;45870;42.528;26.740;2023-07-09T00:39:47;11.07;;;6.20;;
60018;SDS011;45870;42.528;26.740;2023-07-09T00:42:18;16.92;;;5.93;;
60018;SDS011;45870;42.528;26.740;2023-07-09T00:47:17;17.23;;;5.70;;
60018;SDS011;45870;42.528;26.740;2023-07-09T00:49:46;12.18;;;5.72;;
60018;SDS011;45870;42.528;26.740;2023-07-09T00:52:25;11.85;;;5.78;;
60018;SDS011;45870;42.528;26.740;2023-07-09T00:54:58;11.60;;;6.55;;
60018;SDS011;45870;42.528;26.740;2023-07-09T00:57:28;9.00;;;5.80;;
60018;SDS011;45870;42.528;26.740;2023-07-09T00:59:56;8.82;;;5.90;;
60018;SDS011;45870;42.528;26.740;2023-07-09T01:02:25;9.97;;;5.97;;
60018;SDS011;45870;42.528;26.740;2023-07-09T01:04:53;10.38;;;5.65;;
60018;SDS011;45870;42.528;26.740;2023-07-09T01:07:26;12.80;;;5.95;;
60018;SDS011;45870;42.528;26.740;2023-07-09T01:09:53;9.02;;;5.85;;
60018;SDS011;45870;42.528;26.740;2023-07-09T01:12:19;12.23;;;6.55;;
60018;SDS011;45870;42.528;26.740;2023-07-09T01:14:45;9.85;;;6.10;;
60018;SDS011;45870;42.528;26.740;2023-07-09T01:17:16;10.10;;;5.78;;
60018;SDS011;45870;42.528;26.740;2023-07-09T01:19:43;7.68;;;5.53;;
60018;SDS011;45870;42.528;26.740;2023-07-09T01:22:16;11.50;;;5.20;;
60018;SDS011;45870;42.528;26.740;2023-07-09T01:24:50;11.20;;;5.57;;
60018;SDS011;45870;42.528;26.740;2023-07-09T01:27:24;9.02;;;5.68;;
60018;SDS011;45870;42.528;26.740;2023-07-09T01:29:52;8.43;;;4.90;;
60018;SDS011;45870;42.528;26.740;2023-07-09T01:32:19;9.20;;;5.28;;
60018;SDS011;45870;42.528;26.740;2023-07-09T01:34:47;12.75;;;5.93;;
60018;SDS011;45870;42.528;26.740;2023-07-09T01:37:16;9.82;;;5.65;;
60018;SDS011;45870;42.528;26.740;2023-07-09T01:39:56;9.52;;;5.40;;
60018;SDS011;45870;42.528;26.740;2023-07-09T01:42:23;8.75;;;5.30;;
60018;SDS011;45870;42.528;26.740;2023-07-09T01:44:51;9.82;;;5.63;;
60018;SDS011;45870;42.528;26.740;2023-07-09T01:47:18;19.75;;;6.53;;
60018;SDS011;45870;42.528;26.740;2023-07-09T01:49:44;9.77;;;6.00;;
60018;SDS011;45870;42.528;26.740;2023-07-09T01:52:14;8.20;;;5.80;;
60018;SDS011;45870;42.528;26.740;2023-07-09T01:54:41;8.98;;;5.53;;
60018;SDS011;45870;42.528;26.740;2023-07-09T01:59:44;7.28;;;5.10;;
60018;SDS011;45870;42.528;26.740;2023-07-09T02:02:11;8.07;;;5.25;;
60018;SDS011;45870;42.528;26.740;2023-07-09T02:04:49;6.75;;;5.43;;
60018;SDS011;45870;42.528;26.740;2023-07-09T02:07:17;7.00;;;5.13;;
60018;SDS011;45870;42.528;26.740;2023-07-09T02:09:44;9.00;;;5.20;;
60018;SDS011;45870;42.528;26.740;2023-07-09T02:12:10;12.38;;;5.40;;
60018;SDS011;45870;42.528;26.740;2023-07-09T02:14:37;7.68;;;4.93;;
60018;SDS011;45870;42.528;26.740;2023-07-09T02:17:04;7.40;;;4.82;;
60018;SDS011;45870;42.528;26.740;2023-07-09T02:19:30;7.78;;;4.70;;
60018;SDS011;45870;42.528;26.740;2023-07-09T02:21:56;9.18;;;5.00;;
60018;SDS011;45870;42.528;26.740;2023-07-09T02:24:22;13.38;;;4.65;;
60018;SDS011;45870;42.528;26.740;2023-07-09T02:26:51;9.73;;;5.03;;
60018;SDS011;45870;42.528;26.740;2023-07-09T02:29:17;9.35;;;4.75;;
60018;SDS011;45870;42.528;26.740;2023-07-09T02:31:43;7.15;;;4.50;;
60018;SDS011;45870;42.528;26.740;2023-07-09T02:34:10;7.47;;;4.25;;
60018;SDS011;45870;42.528;26.740;2023-07-09T02:36:35;6.50;;;4.53;;
60018;SDS011;45870;42.528;26.740;2023-07-09T02:39:01;7.45;;;4.40;;
60018;SDS011;45870;42.528;26.740;2023-07-09T02:41:27;8.63;;;4.22;;
60018;SDS011;45870;42.528;26.740;2023-07-09T02:43:53;7.47;;;4.30;;
60018;SDS011;45870;42.528;26.740;2023-07-09T02:46:18;6.47;;;4.00;;
60018;SDS011;45870;42.528;26.740;2023-07-09T02:48:44;6.50;;;4.05;;
60018;SDS011;45870;42.528;26.740;2023-07-09T02:51:09;10.05;;;3.85;;
60018;SDS011;45870;42.528;26.740;2023-07-09T02:53:35;8.85;;;3.78;;
60018;SDS011;45870;42.528;26.740;2023-07-09T02:56:01;7.45;;;4.05;;
60018;SDS011;45870;42.528;26.740;2023-07-09T02:58:26;7.25;;;3.75;;
60018;SDS011;45870;42.528;26.740;2023-07-09T03:00:52;10.00;;;4.68;;
60018;SDS011;45870;42.528;26.740;2023-07-09T03:03:18;8.45;;;3.90;;
60018;SDS011;45870;42.528;26.740;2023-07-09T03:05:46;5.82;;;3.88;;
60018;SDS011;45870;42.528;26.740;2023-07-09T03:08:12;6.28;;;3.50;;
60018;SDS011;45870;42.528;26.740;2023-07-09T03:10:38;7.68;;;3.78;;
60018;SDS011;45870;42.528;26.740;2023-07-09T03:13:04;6.07;;;3.58;;
60018;SDS011;45870;42.528;26.740;2023-07-09T03:15:30;6.75;;;3.70;;
60018;SDS011;45870;42.528;26.740;2023-07-09T03:17:56;5.28;;;3.20;;
60018;SDS011;45870;42.528;26.740;2023-07-09T03:20:22;5.80;;;3.05;;
60018;SDS011;45870;42.528;26.740;2023-07-09T03:22:48;8.18;;;3.20;;
60018;SDS011;45870;42.528;26.740;2023-07-09T03:25:13;5.95;;;3.20;;
60018;SDS011;45870;42.528;26.740;2023-07-09T03:27:39;4.63;;;2.90;;
60018;SDS011;45870;42.528;26.740;2023-07-09T03:30:05;7.72;;;2.92;;
60018;SDS011;45870;42.528;26.740;2023-07-09T03:32:31;4.60;;;2.92;;
60018;SDS011;45870;42.528;26.740;2023-07-09T03:34:57;5.28;;;3.08;;
60018;SDS011;45870;42.528;26.740;2023-07-09T03:37:22;5.95;;;3.10;;
60018;SDS011;45870;42.528;26.740;2023-07-09T03:39:48;5.65;;;2.83;;
60018;SDS011;45870;42.528;26.740;2023-07-09T03:42:14;3.47;;;2.83;;
60018;SDS011;45870;42.528;26.740;2023-07-09T03:44:39;5.15;;;3.00;;
60018;SDS011;45870;42.528;26.740;2023-07-09T03:47:06;4.97;;;2.60;;
60018;SDS011;45870;42.528;26.740;2023-07-09T03:49:32;4.57;;;2.78;;
60018;SDS011;45870;42.528;26.740;2023-07-09T03:51:57;7.05;;;2.80;;
60018;SDS011;45870;42.528;26.740;2023-07-09T03:54:23;6.50;;;2.33;;
60018;SDS011;45870;42.528;26.740;2023-07-09T03:56:49;4.60;;;2.70;;
60018;SDS011;45870;42.528;26.740;2023-07-09T03:59:15;8.48;;;3.00;;
60018;SDS011;45870;42.528;26.740;2023-07-09T04:01:40;3.70;;;2.75;;
60018;SDS011;45870;42.528;26.740;2023-07-09T04:04:14;4.50;;;2.80;;
60018;SDS011;45870;42.528;26.740;2023-07-09T04:06:40;10.82;;;2.80;;
60018;SDS011;45870;42.528;26.740;2023-07-09T04:09:06;8.00;;;2.58;;
60018;SDS011;45870;42.528;26.740;2023-07-09T04:11:31;4.38;;;2.92;;
60018;SDS011;45870;42.528;26.740;2023-07-09T04:13:58;4.47;;;2.90;;
60018;SDS011;45870;42.528;26.740;2023-07-09T04:16:23;3.55;;;1.73;;
60018;SDS011;45870;42.528;26.740;2023-07-09T04:18:49;3.88;;;1.58;;
60018;SDS011;45870;42.528;26.740;2023-07-09T04:21:15;1.90;;;1.50;;
60018;SDS011;45870;42.528;26.740;2023-07-09T04:23:40;4.07;;;1.75;;
60018;SDS011;45870;42.528;26.740;2023-07-09T04:26:07;5.60;;;1.83;;
60018;SDS011;45870;42.528;26.740;2023-07-09T04:28:39;3.67;;;1.60;;
60018;SDS011;45870;42.528;26.740;2023-07-09T04:31:05;7.03;;;1.92;;
60018;SDS011;45870;42.528;26.740;2023-07-09T04:33:31;2.08;;;1.40;;
60018;SDS011;45870;42.528;26.740;2023-07-09T04:35:56;2.42;;;1.48;;
60018;SDS011;45870;42.528;26.740;2023-07-09T04:38:22;3.45;;;1.30;;
60018;SDS011;45870;42.528;26.740;2023-07-09T04:40:48;3.17;;;1.80;;
60018;SDS011;45870;42.528;26.740;2023-07-09T04:43:14;3.97;;;1.35;;
60018;SDS011;45870;42.528;26.740;2023-07-09T04:45:39;2.65;;;1.50;;
60018;SDS011;45870;42.528;26.740;2023-07-09T04:48:05;3.78;;;1.70;;
60018;SDS011;45870;42.528;26.740;2023-07-09T04:50:31;1.55;;;1.27;;
60018;SDS011;45870;42.528;26.740;2023-07-09T04:52:59;3.92;;;1.42;;
60018;SDS011;45870;42.528;26.740;2023-07-09T04:55:25;2.72;;;1.55;;
60018;SDS011;45870;42.528;26.740;2023-07-09T04:57:52;3.00;;;1.80;;
60018;SDS011;45870;42.528;26.740;2023-07-09T05:00:18;4.53;;;1.92;;
60018;SDS011;45870;42.528;26.740;2023-07-09T05:02:44;3.97;;;1.63;;
60018;SDS011;45870;42.528;26.740;2023-07-09T05:05:09;3.47;;;1.80;;
60018;SDS011;45870;42.528;26.740;2023-07-09T05:07:37;3.72;;;1.85;;
60018;SDS011;45870;42.528;26.740;2023-07-09T05:10:04;4.35;;;1.80;;
60018;SDS011;45870;42.528;26.740;2023-07-09T05:12:30;4.57;;;1.70;;
60018;SDS011;45870;42.528;26.740;2023-07-09T05:14:56;2.92;;;1.75;;
60018;SDS011;45870;42.528;26.740;2023-07-09T05:17:22;2.85;;;1.70;;
60018;SDS011;45870;42.528;26.740;2023-07-09T05:19:49;3.10;;;1.80;;
60018;SDS011;45870;42.528;26.740;2023-07-09T05:22:17;3.58;;;1.40;;
60018;SDS011;45870;42.528;26.740;2023-07-09T05:24:43;3.10;;;1.05;;
60018;SDS011;45870;42.528;26.740;2023-07-09T05:27:08;1.95;;;1.25;;
60018;SDS011;45870;42.528;26.740;2023-07-09T05:29:34;2.97;;;1.58;;
60018;SDS011;45870;42.528;26.740;2023-07-09T05:32:00;2.60;;;1.30;;
60018;SDS011;45870;42.528;26.740;2023-07-09T05:34:25;4.53;;;1.00;;
60018;SDS011;45870;42.528;26.740;2023-07-09T05:36:51;2.05;;;0.98;;
60018;SDS011;45870;42.528;26.740;2023-07-09T05:39:17;3.10;;;1.40;;
60018;SDS011;45870;42.528;26.740;2023-07-09T05:41:43;2.67;;;0.90;;
60018;SDS011;45870;42.528;26.740;2023-07-09T05:44:09;1.85;;;1.02;;
60018;SDS011;45870;42.528;26.740;2023-07-09T05:46:35;2.88;;;1.02;;
60018;SDS011;45870;42.528;26.740;2023-07-09T05:49:02;2.45;;;0.90;;
60018;SDS011;45870;42.528;26.740;2023-07-09T05:51:28;2.28;;;1.17;;
60018;SDS011;45870;42.528;26.740;2023-07-09T05:53:54;8.65;;;1.35;;
60018;SDS011;45870;42.528;26.740;2023-07-09T05:56:20;4.35;;;1.55;;
60018;SDS011;45870;42.528;26.740;2023-07-09T05:58:46;2.28;;;1.00;;
60018;SDS011;45870;42.528;26.740;2023-07-09T06:01:12;2.45;;;1.05;;
60018;SDS011;45870;42.528;26.740;2023-07-09T06:03:38;2.95;;;1.10;;
60018;SDS011;45870;42.528;26.740;2023-07-09T06:06:04;1.70;;;1.33;;
60018;SDS011;45870;42.528;26.740;2023-07-09T06:08:31;1.20;;;1.00;;
60018;SDS011;45870;42.528;26.740;2023-07-09T06:10:58;4.50;;;1.25;;
60018;SDS011;45870;42.528;26.740;2023-07-09T06:13:28;2.75;;;1.20;;
60018;SDS011;45870;42.528;26.740;2023-07-09T06:15:56;2.47;;;1.10;;
60018;SDS011;45870;42.528;26.740;2023-07-09T06:18:23;2.75;;;1.40;;
60018;SDS011;45870;42.528;26.740;2023-07-09T06:20:50;1.73;;;1.15;;
60018;SDS011;45870;42.528;26.740;2023-07-09T06:23:18;2.65;;;1.52;;
60018;SDS011;45870;42.528;26.740;2023-07-09T06:25:44;3.65;;;1.17;;
60018;SDS011;45870;42.528;26.740;2023-07-09T06:28:17;1.75;;;1.20;;
60018;SDS011;45870;42.528;26.740;2023-07-09T06:30:45;1.52;;;0.98;;
60018;SDS011;45870;42.528;26.740;2023-07-09T06:33:11;2.70;;;1.25;;
60018;SDS011;45870;42.528;26.740;2023-07-09T06:35:39;1.70;;;1.00;;
60018;SDS011;45870;42.528;26.740;2023-07-09T06:38:05;3.15;;;1.20;;
60018;SDS011;45870;42.528;26.740;2023-07-09T06:40:31;1.52;;;0.90;;
60018;SDS011;45870;42.528;26.740;2023-07-09T06:42:57;3.67;;;1.10;;
60018;SDS011;45870;42.528;26.740;2023-07-09T06:45:23;2.78;;;1.33;;
60018;SDS011;45870;42.528;26.740;2023-07-09T06:47:49;7.20;;;1.45;;
60018;SDS011;45870;42.528;26.740;2023-07-09T06:50:15;3.83;;;1.02;;
60018;SDS011;45870;42.528;26.740;2023-07-09T06:52:41;2.30;;;1.10;;
60018;SDS011;45870;42.528;26.740;2023-07-09T06:55:07;1.25;;;0.85;;
60018;SDS011;45870;42.528;26.740;2023-07-09T06:57:33;2.85;;;1.05;;
60018;SDS011;45870;42.528;26.740;2023-07-09T06:59:59;2.25;;;1.20;;
60018;SDS011;45870;42.528;26.740;2023-07-09T07:02:25;2.53;;;1.20;;
60018;SDS011;45870;42.528;26.740;2023-07-09T07:04:50;3.92;;;1.20;;
60018;SDS011;45870;42.528;26.740;2023-07-09T07:07:16;1.63;;;1.05;;
60018;SDS011;45870;42.528;26.740;2023-07-09T07:09:41;5.03;;;1.20;;
60018;SDS011;45870;42.528;26.740;2023-07-09T07:12:07;3.17;;;0.90;;
60018;SDS011;45870;42.528;26.740;2023-07-09T07:14:33;4.68;;;1.13;;
60018;SDS011;45870;42.528;26.740;2023-07-09T07:16:59;4.40;;;1.25;;
60018;SDS011;45870;42.528;26.740;2023-07-09T07:19:24;1.55;;;1.08;;
60018;SDS011;45870;42.528;26.740;2023-07-09T07:21:51;1.85;;;0.70;;
60018;SDS011;45870;42.528;26.740;2023-07-09T07:24:16;2.75;;;1.13;;
60018;SDS011;45870;42.528;26.740;2023-07-09T07:26:42;1.67;;;0.90;;
60018;SDS011;45870;42.528;26.740;2023-07-09T07:29:08;1.33;;;0.82;;
60018;SDS011;45870;42.528;26.740;2023-07-09T07:31:33;0.85;;;0.68;;
60018;SDS011;45870;42.528;26.740;2023-07-09T07:33:59;2.03;;;0.93;;
60018;SDS011;45870;42.528;26.740;2023-07-09T07:36:25;2.70;;;1.23;;
60018;SDS011;45870;42.528;26.740;2023-07-09T07:38:50;3.28;;;1.20;;
60018;SDS011;45870;42.528;26.740;2023-07-09T07:41:16;2.58;;;1.00;;
60018;SDS011;45870;42.528;26.740;2023-07-09T07:43:42;1.73;;;0.80;;
60018;SDS011;45870;42.528;26.740;2023-07-09T07:46:08;1.48;;;0.90;;
60018;SDS011;45870;42.528;26.740;2023-07-09T07:48:33;1.80;;;1.08;;
60018;SDS011;45870;42.528;26.740;2023-07-09T07:51:00;8.18;;;1.00;;
60018;SDS011;45870;42.528;26.740;2023-07-09T07:53:27;1.48;;;0.82;;
60018;SDS011;45870;42.528;26.740;2023-07-09T07:55:54;2.40;;;1.10;;
60018;SDS011;45870;42.528;26.740;2023-07-09T08:02:03;2.38;;;1.40;;
60018;SDS011;45870;42.528;26.740;2023-07-09T08:04:31;2.10;;;1.25;;
60018;SDS011;45870;42.528;26.740;2023-07-09T08:06:57;2.13;;;1.20;;
60018;SDS011;45870;42.528;26.740;2023-07-09T08:09:23;2.20;;;1.38;;
60018;SDS011;45870;42.528;26.740;2023-07-09T08:11:49;4.03;;;1.30;;
60018;SDS011;45870;42.528;26.740;2023-07-09T08:14:15;2.65;;;1.33;;
60018;SDS011;45870;42.528;26.740;2023-07-09T08:16:41;4.32;;;1.40;;
60018;SDS011;45870;42.528;26.740;2023-07-09T08:19:07;2.63;;;1.27;;
60018;SDS011;45870;42.528;26.740;2023-07-09T08:21:33;4.88;;;1.38;;
60018;SDS011;45870;42.528;26.740;2023-07-09T08:23:58;2.17;;;1.52;;
60018;SDS011;45870;42.528;26.740;2023-07-09T08:26:24;1.92;;;1.20;;
60018;SDS011;45870;42.528;26.740;2023-07-09T08:28:50;2.33;;;1.45;;
60018;SDS011;45870;42.528;26.740;2023-07-09T08:31:17;4.38;;;1.58;;
60018;SDS011;45870;42.528;26.740;2023-07-09T08:33:43;3.10;;;1.25;;
60018;SDS011;45870;42.528;26.740;2023-07-09T08:36:09;2.20;;;1.20;;
60018;SDS011;45870;42.528;26.740;2023-07-09T08:38:35;2.25;;;1.20;;
60018;SDS011;45870;42.528;26.740;2023-07-09T08:41:02;2.33;;;1.35;;
60018;SDS011;45870;42.528;26.740;2023-07-09T08:49:12;5.20;;;1.60;;
60018;SDS011;45870;42.528;26.740;2023-07-09T08:51:46;2.33;;;1.10;;
60018;SDS011;45870;42.528;26.740;2023-07-09T08:54:15;2.10;;;1.10;;
60018;SDS011;45870;42.528;26.740;2023-07-09T08:56:50;1.98;;;1.00;;
60018;SDS011;45870;42.528;26.740;2023-07-09T08:59:16;2.17;;;1.38;;
60018;SDS011;45870;42.528;26.740;2023-07-09T09:01:52;4.00;;;1.17;;
60018;SDS011;45870;42.528;26.740;2023-07-09T09:04:27;2.20;;;1.00;;
60018;SDS011;45870;42.528;26.740;2023-07-09T09:07:00;1.55;;;1.23;;
60018;SDS011;45870;42.528;26.740;2023-07-09T09:09:38;12.32;;;1.10;;
60018;SDS011;45870;42.528;26.740;2023-07-09T09:15:18;2.30;;;1.30;;
60018;SDS011;45870;42.528;26.740;2023-07-09T09:17:45;1.23;;;0.87;;
60018;SDS011;45870;42.528;26.740;2023-07-09T09:20:32;3.08;;;1.08;;
60018;SDS011;45870;42.528;26.740;2023-07-09T09:23:08;3.60;;;1.10;;
60018;SDS011;45870;42.528;26.740;2023-07-09T09:28:08;2.28;;;1.10;;
60018;SDS011;45870;42.528;26.740;2023-07-09T09:30:33;1.73;;;1.23;;
60018;SDS011;45870;42.528;26.740;2023-07-09T09:33:01;3.08;;;1.20;;
60018;SDS011;45870;42.528;26.740;2023-07-09T09:35:34;5.65;;;1.38;;
60018;SDS011;45870;42.528;26.740;2023-07-09T09:38:10;2.38;;;0.98;;
60018;SDS011;45870;42.528;26.740;2023-07-09T09:40:38;1.20;;;0.90;;
60018;SDS011;45870;42.528;26.740;2023-07-09T09:43:10;2.72;;;1.10;;
60018;SDS011;45870;42.528;26.740;2023-07-09T09:45:39;1.70;;;1.08;;
60018;SDS011;45870;42.528;26.740;2023-07-09T09:48:20;3.13;;;1.48;;
60018;SDS011;45870;42.528;26.740;2023-07-09T09:50:54;4.93;;;1.73;;
60018;SDS011;45870;42.528;26.740;2023-07-09T09:53:26;4.75;;;1.10;;
60018;SDS011;45870;42.528;26.740;2023-07-09T09:55:53;2.33;;;1.20;;
60018;SDS011;45870;42.528;26.740;2023-07-09T09:58:24;2.60;;;1.05;;
60018;SDS011;45870;42.528;26.740;2023-07-09T10:00:54;1.58;;;1.15;;
60018;SDS011;45870;42.528;26.740;2023-07-09T10:03:21;2.63;;;1.20;;
60018;SDS011;45870;42.528;26.740;2023-07-09T10:05:59;1.70;;;1.15;;
60018;SDS011;45870;42.528;26.740;2023-07-09T10:08:38;2.80;;;1.50;;
60018;SDS011;45870;42.528;26.740;2023-07-09T10:13:47;3.00;;;1.67;;
60018;SDS011;45870;42.528;26.740;2023-07-09T10:16:27;2.03;;;1.20;;
60018;SDS011;45870;42.528;26.740;2023-07-09T10:19:07;2.33;;;1.40;;
60018;SDS011;45870;42.528;26.740;2023-07-09T10:21:45;3.72;;;1.42;;
60018;SDS011;45870;42.528;26.740;2023-07-09T10:24:23;2.58;;;1.35;;
60018;SDS011;45870;42.528;26.740;2023-07-09T10:35:24;1.85;;;1.10;;
60018;SDS011;45870;42.528;26.740;2023-07-09T10:38:14;2.05;;;1.45;;
60018;SDS011;45870;42.528;26.740;2023-07-09T10:40:59;2.20;;;1.20;;
60018;SDS011;45870;42.528;26.740;2023-07-09T10:46:26;1.85;;;1.00;;
60018;SDS011;45870;42.528;26.740;2023-07-09T10:49:00;4.10;;;1.00;;
60018;SDS011;45870;42.528;26.740;2023-07-09T10:57:22;2.88;;;1.50;;
60018;SDS011;45870;42.528;26.740;2023-07-09T10:59:53;1.70;;;1.08;;
60018;SDS011;45870;42.528;26.740;2023-07-09T11:02:33;2.05;;;1.10;;
60018;SDS011;45870;42.528;26.740;2023-07-09T11:05:05;2.17;;;1.17;;
60018;SDS011;45870;42.528;26.740;2023-07-09T11:10:27;1.67;;;1.00;;
60018;SDS011;45870;42.528;26.740;2023-07-09T11:13:01;1.63;;;1.10;;
60018;SDS011;45870;42.528;26.740;2023-07-09T11:15:31;1.27;;;0.90;;
60018;SDS011;45870;42.528;26.740;2023-07-09T11:18:02;1.52;;;0.80;;
60018;SDS011;45870;42.528;26.740;2023-07-09T11:20:32;2.45;;;1.20;;
60018;SDS011;45870;42.528;26.740;2023-07-09T11:23:02;1.90;;;0.90;;
60018;SDS011;45870;42.528;26.740;2023-07-09T11:25:42;1.38;;;0.95;;
60018;SDS011;45870;42.528;26.740;2023-07-09T11:28:12;1.30;;;1.00;;
60018;SDS011;45870;42.528;26.740;2023-07-09T11:30:46;3.80;;;1.08;;
60018;SDS011;45870;42.528;26.740;2023-07-09T11:33:19;2.53;;;1.10;;
60018;SDS011;45870;42.528;26.740;2023-07-09T11:35:52;7.13;;;1.30;;
60018;SDS011;45870;42.528;26.740;2023-07-09T11:38:36;1.85;;;0.70;;
60018;SDS011;45870;42.528;26.740;2023-07-09T11:41:43;0.88;;;0.80;;
60018;SDS011;45870;42.528;26.740;2023-07-09T11:46:51;1.83;;;0.93;;
60018;SDS011;45870;42.528;26.740;2023-07-09T11:49:18;1.48;;;0.90;;
60018;SDS011;45870;42.528;26.740;2023-07-09T11:51:46;1.35;;;0.82;;
60018;SDS011;45870;42.528;26.740;2023-07-09T11:54:18;1.50;;;0.98;;
60018;SDS011;45870;42.528;26.740;2023-07-09T11:56:55;1.35;;;0.90;;
60018;SDS011;45870;42.528;26.740;2023-07-09T11:59:22;4.65;;;1.20;;
60018;SDS011;45870;42.528;26.740;2023-07-09T12:01:49;2.85;;;0.80;;
60018;SDS011;45870;42.528;26.740;2023-07-09T12:04:23;2.13;;;0.95;;
60018;SDS011;45870;42.528;26.740;2023-07-09T12:06:57;2.53;;;1.23;;
60018;SDS011;45870;42.528;26.740;2023-07-09T12:09:30;6.97;;;1.42;;
60018;SDS011;45870;42.528;26.740;2023-07-09T12:12:15;1.63;;;0.93;;
60018;SDS011;45870;42.528;26.740;2023-07-09T12:14:47;1.83;;;1.25;;
60018;SDS011;45870;42.528;26.740;2023-07-09T12:17:13;1.77;;;1.00;;
60018;SDS011;45870;42.528;26.740;2023-07-09T12:19:39;1.50;;;0.82;;
60018;SDS011;45870;42.528;26.740;2023-07-09T12:22:06;1.98;;;0.90;;
60018;SDS011;45870;42.528;26.740;2023-07-09T12:24:36;1.38;;;0.80;;
60018;SDS011;45870;42.528;26.740;2023-07-09T12:27:16;3.78;;;1.30;;
60018;SDS011;45870;42.528;26.740;2023-07-09T12:29:46;1.85;;;1.23;;
60018;SDS011;45870;42.528;26.740;2023-07-09T12:32:13;2.50;;;1.40;;
60018;SDS011;45870;42.528;26.740;2023-07-09T12:34:40;3.95;;;1.15;;
60018;SDS011;45870;42.528;26.740;2023-07-09T12:37:13;4.72;;;1.15;;
60018;SDS011;45870;42.528;26.740;2023-07-09T12:39:40;4.80;;;1.15;;
60018;SDS011;45870;42.528;26.740;2023-07-09T12:42:12;1.40;;;0.98;;
60018;SDS011;45870;42.528;26.740;2023-07-09T12:44:42;1.30;;;0.93;;
60018;SDS011;45870;42.528;26.740;2023-07-09T12:47:12;1.63;;;1.20;;
60018;SDS011;45870;42.528;26.740;2023-07-09T12:49:40;3.55;;;1.80;;
60018;SDS011;45870;42.528;26.740;2023-07-09T12:52:18;1.48;;;0.95;;
60018;SDS011;45870;42.528;26.740;2023-07-09T12:54:55;2.95;;;1.10;;
60018;SDS011;45870;42.528;26.740;2023-07-09T12:57:24;2.28;;;1.20;;
60018;SDS011;45870;42.528;26.740;2023-07-09T12:59:51;2.00;;;1.20;;
60018;SDS011;45870;42.528;26.740;2023-07-09T13:02:20;2.42;;;1.27;;
60018;SDS011;45870;42.528;26.740;2023-07-09T13:04:50;2.30;;;1.00;;
60018;SDS011;45870;42.528;26.740;2023-07-09T13:09:51;6.35;;;1.30;;
60018;SDS011;45870;42.528;26.740;2023-07-09T13:12:18;2.63;;;1.15;;
60018;SDS011;45870;42.528;26.740;2023-07-09T13:14:52;2.28;;;1.40;;
60018;SDS011;45870;42.528;26.740;2023-07-09T13:17:19;2.13;;;1.00;;
60018;SDS011;45870;42.528;26.740;2023-07-09T13:19:45;2.40;;;1.30;;
60018;SDS011;45870;42.528;26.740;2023-07-09T13:22:15;2.30;;;1.40;;
60018;SDS011;45870;42.528;26.740;2023-07-09T13:24:42;6.93;;;2.08;;
60018;SDS011;45870;42.528;26.740;2023-07-09T13:27:14;3.05;;;1.23;;
60018;SDS011;45870;42.528;26.740;2023-07-09T13:29:41;1.92;;;1.30;;
60018;SDS011;45870;42.528;26.740;2023-07-09T13:32:11;1.70;;;1.10;;
60018;SDS011;45870;42.528;26.740;2023-07-09T13:34:38;1.50;;;1.07;;
60018;SDS011;45870;42.528;26.740;2023-07-09T13:37:05;1.83;;;1.08;;
60018;SDS011;45870;42.528;26.740;2023-07-09T13:39:36;3.90;;;1.10;;
60018;SDS011;45870;42.528;26.740;2023-07-09T13:42:02;1.60;;;0.90;;
60018;SDS011;45870;42.528;26.740;2023-07-09T13:44:29;3.25;;;1.30;;
60018;SDS011;45870;42.528;26.740;2023-07-09T13:46:58;1.35;;;0.90;;
60018;SDS011;45870;42.528;26.740;2023-07-09T13:49:24;2.33;;;0.80;;
60018;SDS011;45870;42.528;26.740;2023-07-09T13:51:53;1.90;;;1.00;;
60018;SDS011;45870;42.528;26.740;2023-07-09T13:54:23;1.35;;;0.98;;
60018;SDS011;45870;42.528;26.740;2023-07-09T13:56:51;3.15;;;1.10;;
60018;SDS011;45870;42.528;26.740;2023-07-09T13:59:21;2.38;;;1.17;;
60018;SDS011;45870;42.528;26.740;2023-07-09T14:01:49;1.95;;;1.20;;
60018;SDS011;45870;42.528;26.740;2023-07-09T14:04:18;3.35;;;1.30;;
60018;SDS011;45870;42.528;26.740;2023-07-09T14:06:44;3.92;;;1.42;;
60018;SDS011;45870;42.528;26.740;2023-07-09T14:09:14;2.15;;;1.25;;
60018;SDS011;45870;42.528;26.740;2023-07-09T14:11:43;2.03;;;1.30;;
60018;SDS011;45870;42.528;26.740;2023-07-09T14:14:16;3.08;;;1.50;;
60018;SDS011;45870;42.528;26.740;2023-07-09T14:16:44;2.60;;;1.27;;
60018;SDS011;45870;42.528;26.740;2023-07-09T14:19:16;1.70;;;1.10;;
60018;SDS011;45870;42.528;26.740;2023-07-09T14:21:47;2.50;;;1.40;;
60018;SDS011;45870;42.528;26.740;2023-07-09T14:26:47;3.33;;;1.48;;
60018;SDS011;45870;42.528;26.740;2023-07-09T14:29:14;2.42;;;1.05;;
60018;SDS011;45870;42.528;26.740;2023-07-09T14:31:40;1.92;;;1.30;;
60018;SDS011;45870;42.528;26.740;2023-07-09T14:34:27;3.22;;;1.52;;
60018;SDS011;45870;42.528;26.740;2023-07-09T14:36:55;2.45;;;1.30;;
60018;SDS011;45870;42.528;26.740;2023-07-09T14:39:22;3.35;;;1.52;;
60018;SDS011;45870;42.528;26.740;2023-07-09T14:41:49;2.63;;;1.40;;
60018;SDS011;45870;42.528;26.740;2023-07-09T14:44:22;4.80;;;1.67;;
60018;SDS011;45870;42.528;26.740;2023-07-09T14:46:50;2.88;;;1.40;;
60018;SDS011;45870;42.528;26.740;2023-07-09T14:49:17;2.95;;;1.52;;
60018;SDS011;45870;42.528;26.740;2023-07-09T14:51:44;4.32;;;1.30;;
60018;SDS011;45870;42.528;26.740;2023-07-09T14:54:21;2.53;;;1.45;;
60018;SDS011;45870;42.528;26.740;2023-07-09T14:56:52;2.23;;;1.40;;
60018;SDS011;45870;42.528;26.740;2023-07-09T14:59:19;1.67;;;1.25;;
60018;SDS011;45870;42.528;26.740;2023-07-09T15:01:45;2.40;;;1.38;;
60018;SDS011;45870;42.528;26.740;2023-07-09T15:06:47;2.83;;;1.50;;
60018;SDS011;45870;42.528;26.740;2023-07-09T15:09:19;4.53;;;2.17;;
60018;SDS011;45870;42.528;26.740;2023-07-09T15:11:46;1.98;;;1.35;;
60018;SDS011;45870;42.528;26.740;2023-07-09T15:14:15;3.20;;;1.50;;
60018;SDS011;45870;42.528;26.740;2023-07-09T15:16:40;2.55;;;1.23;;
60018;SDS011;45870;42.528;26.740;2023-07-09T15:19:13;3.00;;;1.55;;
60018;SDS011;45870;42.528;26.740;2023-07-09T15:21:41;2.70;;;1.42;;
60018;SDS011;45870;42.528;26.740;2023-07-09T15:24:11;4.70;;;1.88;;
60018;SDS011;45870;42.528;26.740;2023-07-09T15:26:45;2.85;;;1.60;;
60018;SDS011;45870;42.528;26.740;2023-07-09T15:29:17;5.35;;;1.77;;
60018;SDS011;45870;42.528;26.740;2023-07-09T15:31:43;2.33;;;1.17;;
60018;SDS011;45870;42.528;26.740;2023-07-09T15:34:09;6.10;;;1.38;;
60018;SDS011;45870;42.528;26.740;2023-07-09T15:36:35;2.65;;;1.40;;
60018;SDS011;45870;42.528;26.740;2023-07-09T15:39:01;1.05;;;0.95;;